createdAt,value
2023-01-17T00:02:24.262Z,1.42
2023-01-17T00:05:10.112Z,1.55
2023-01-17T00:08:06.539Z,2.92
2023-01-17T00:10:33.446Z,2.38
2023-01-17T00:13:03.905Z,1.52
2023-01-17T00:15:32.730Z,3.65
2023-01-17T00:18:00.028Z,3.40
2023-01-17T00:20:49.194Z,1.40
2023-01-17T00:23:44.416Z,2.00
2023-01-17T00:26:19.592Z,0.93
2023-01-17T00:28:46.725Z,1.75
2023-01-17T00:31:15.685Z,1.40
2023-01-17T00:33:42.917Z,1.70
2023-01-17T00:36:11.375Z,1.95
2023-01-17T00:38:39.791Z,3.97
2023-01-17T00:41:12.951Z,1.73
2023-01-17T00:43:59.068Z,3.63
2023-01-17T00:46:45.807Z,1.25
2023-01-17T00:49:31.027Z,2.42
2023-01-17T00:52:17.488Z,2.20
2023-01-17T00:55:02.904Z,3.47
2023-01-17T00:57:48.462Z,3.17
2023-01-17T01:00:38.567Z,1.38
2023-01-17T01:03:29.672Z,2.78
2023-01-17T01:06:17.078Z,1.67
2023-01-17T01:09:04.128Z,2.58
2023-01-17T01:11:50.546Z,2.47
2023-01-17T01:14:36.487Z,1.52
2023-01-17T01:17:22.707Z,1.23
2023-01-17T01:20:07.818Z,2.15
2023-01-17T01:22:53.510Z,1.10
2023-01-17T01:25:38.785Z,1.55
2023-01-17T01:28:33.343Z,2.63
2023-01-17T01:31:22.810Z,3.83
2023-01-17T01:33:51.709Z,0.98
2023-01-17T01:36:19.190Z,1.20
2023-01-17T01:38:46.751Z,1.52
2023-01-17T01:41:13.711Z,3.40
2023-01-17T01:43:55.695Z,2.20
2023-01-17T01:46:42.081Z,2.42
2023-01-17T01:49:20.635Z,2.80
2023-01-17T01:52:02.681Z,2.22
2023-01-17T01:54:49.295Z,3.00
2023-01-17T01:57:22.170Z,1.98
2023-01-17T01:59:57.826Z,3.28
2023-01-17T02:02:25.553Z,1.65
2023-01-17T02:04:53.313Z,2.78
2023-01-17T02:07:31.359Z,2.70
2023-01-17T02:09:59.107Z,3.00
2023-01-17T02:12:27.034Z,1.60
2023-01-17T02:14:53.858Z,1.73
2023-01-17T02:17:31.648Z,1.90
2023-01-17T02:20:53.945Z,1.88
2023-01-17T02:23:47.696Z,0.80
2023-01-17T02:26:48.788Z,1.60
2023-01-17T02:30:12.461Z,0.82
2023-01-17T02:33:16.405Z,1.38
2023-01-17T02:35:58.264Z,1.83
2023-01-17T02:38:33.185Z,1.65
2023-01-17T02:41:15.238Z,1.50
2023-01-17T02:43:42.706Z,2.10
2023-01-17T02:46:09.983Z,2.45
2023-01-17T02:48:37.884Z,2.35
2023-01-17T02:51:25.393Z,1.73
2023-01-17T02:54:10.674Z,2.92
2023-01-17T02:56:51.770Z,1.98
2023-01-17T02:59:47.375Z,3.30
2023-01-17T03:02:59.445Z,3.03
2023-01-17T03:05:48.493Z,1.60
2023-01-17T03:08:17.341Z,3.78
2023-01-17T03:10:46.197Z,3.00
2023-01-17T03:13:13.684Z,1.30
2023-01-17T03:15:41.395Z,1.80
2023-01-17T03:18:15.743Z,1.33
2023-01-17T03:20:43.016Z,1.92
2023-01-17T03:23:09.767Z,1.15
2023-01-17T03:25:36.611Z,0.73
2023-01-17T03:28:03.644Z,2.17
2023-01-17T03:30:30.640Z,2.25
2023-01-17T03:32:58.464Z,0.73
2023-01-17T03:35:26.308Z,1.00
2023-01-17T03:37:53.049Z,0.60
2023-01-17T03:40:19.838Z,1.25
2023-01-17T03:42:46.776Z,1.17
2023-01-17T03:45:14.707Z,1.08
2023-01-17T03:47:41.474Z,1.27
2023-01-17T03:50:11.245Z,0.82
2023-01-17T03:52:39.079Z,1.23
2023-01-17T03:55:07.617Z,0.93
2023-01-17T03:57:35.645Z,1.92
2023-01-17T04:00:04.569Z,1.73
2023-01-17T04:02:31.400Z,2.65
2023-01-17T04:05:00.407Z,3.75
2023-01-17T04:07:27.318Z,2.53
2023-01-17T04:09:56.168Z,1.48
2023-01-17T04:12:22.923Z,1.73
2023-01-17T04:14:49.701Z,0.63
2023-01-17T04:17:18.983Z,0.60
2023-01-17T04:19:46.937Z,1.52
2023-01-17T04:22:13.841Z,0.80
2023-01-17T04:24:40.600Z,1.80
2023-01-17T04:27:07.674Z,2.83
2023-01-17T04:29:34.481Z,1.27
2023-01-17T04:32:01.209Z,0.98
2023-01-17T04:34:29.519Z,1.00
2023-01-17T04:36:56.277Z,1.77
2023-01-17T04:39:24.984Z,1.95
2023-01-17T04:41:51.926Z,2.92
2023-01-17T04:44:18.679Z,47.05
2023-01-17T04:46:45.438Z,19.70
2023-01-17T04:49:12.221Z,2.25
2023-01-17T04:51:39.001Z,1.50
2023-01-17T04:54:05.828Z,2.17
2023-01-17T04:56:33.297Z,1.98
2023-01-17T04:59:00.830Z,1.35
2023-01-17T05:01:29.654Z,1.15
2023-01-17T05:03:56.440Z,1.70
2023-01-17T05:06:24.428Z,0.80
2023-01-17T05:08:51.941Z,1.63
2023-01-17T05:11:18.708Z,3.20
2023-01-17T05:13:48.238Z,1.10
2023-01-17T05:16:19.817Z,2.85
2023-01-17T05:18:51.967Z,2.55
2023-01-17T05:21:19.652Z,1.93
2023-01-17T05:23:48.823Z,2.30
2023-01-17T05:26:15.648Z,1.05
2023-01-17T05:28:42.726Z,1.88
2023-01-17T05:31:10.645Z,3.75
2023-01-17T05:33:37.466Z,2.38
2023-01-17T05:36:05.330Z,2.35
2023-01-17T05:38:32.132Z,5.80
2023-01-17T05:41:05.043Z,2.55
2023-01-17T05:43:32.222Z,5.13
2023-01-17T05:45:59.204Z,3.53
2023-01-17T05:48:25.963Z,2.65
2023-01-17T05:50:52.791Z,3.53
2023-01-17T05:53:19.648Z,1.73
2023-01-17T05:55:49.653Z,3.00
2023-01-17T05:58:20.180Z,1.90
2023-01-17T06:00:47.523Z,3.10
2023-01-17T06:03:15.639Z,2.58
2023-01-17T06:05:42.767Z,2.88
2023-01-17T06:08:10.978Z,2.83
2023-01-17T06:10:37.768Z,4.18
2023-01-17T06:13:15.121Z,3.95
2023-01-17T06:15:42.443Z,6.05
2023-01-17T06:18:12.868Z,4.38
2023-01-17T06:20:40.740Z,4.57
2023-01-17T06:23:11.028Z,3.03
2023-01-17T06:25:45.822Z,2.58
2023-01-17T06:28:15.225Z,2.10
2023-01-17T06:30:43.868Z,4.53
2023-01-17T06:33:11.993Z,4.30
2023-01-17T06:35:40.868Z,3.50
2023-01-17T06:38:09.901Z,4.32
2023-01-17T06:40:36.844Z,3.47
2023-01-17T06:43:05.323Z,2.75
2023-01-17T06:45:34.909Z,4.30
2023-01-17T06:48:04.039Z,2.67
2023-01-17T06:50:33.512Z,3.55
2023-01-17T06:53:06.745Z,3.95
2023-01-17T06:55:37.092Z,3.15
2023-01-17T06:58:03.895Z,4.75
2023-01-17T07:00:34.885Z,3.08
2023-01-17T07:03:02.065Z,4.72
2023-01-17T07:05:29.011Z,3.58
2023-01-17T07:07:55.862Z,4.72
2023-01-17T07:10:23.546Z,2.10
2023-01-17T07:12:51.343Z,4.38
2023-01-17T07:15:18.240Z,3.88
2023-01-17T07:17:45.032Z,5.93
2023-01-17T07:20:11.984Z,5.30
2023-01-17T07:22:38.764Z,15.80
2023-01-17T07:25:06.252Z,5.60
2023-01-17T07:27:33.480Z,4.65
2023-01-17T07:30:00.417Z,3.42
2023-01-17T07:32:27.771Z,4.10
2023-01-17T07:34:57.379Z,6.22
2023-01-17T07:37:25.959Z,3.05
2023-01-17T07:39:54.427Z,6.90
2023-01-17T07:42:23.908Z,5.93
2023-01-17T07:44:51.065Z,3.72
2023-01-17T07:47:17.963Z,4.65
2023-01-17T07:49:44.710Z,3.50
2023-01-17T07:52:11.729Z,3.33
2023-01-17T07:54:38.559Z,3.47
2023-01-17T07:57:05.385Z,3.10
2023-01-17T07:59:33.736Z,10.23
2023-01-17T08:02:00.852Z,5.13
2023-01-17T08:04:28.712Z,5.80
2023-01-17T08:06:55.539Z,5.38
2023-01-17T08:09:22.283Z,4.03
2023-01-17T08:11:49.084Z,5.10
2023-01-17T08:14:15.924Z,6.32
2023-01-17T08:16:42.835Z,3.35
2023-01-17T08:19:10.307Z,4.82
2023-01-17T08:21:37.397Z,9.82
2023-01-17T08:24:04.509Z,6.13
2023-01-17T08:26:31.305Z,3.20
2023-01-17T08:29:00.546Z,7.28
2023-01-17T08:31:31.290Z,3.67
2023-01-17T08:33:58.195Z,5.05
2023-01-17T08:36:25.969Z,2.72
2023-01-17T08:38:53.421Z,3.47
2023-01-17T08:41:21.662Z,4.13
2023-01-17T08:43:49.582Z,5.05
2023-01-17T08:46:17.667Z,3.47
2023-01-17T08:48:45.351Z,5.05
2023-01-17T08:51:12.427Z,5.32
2023-01-17T08:53:39.296Z,2.97
2023-01-17T08:56:06.817Z,4.68
2023-01-17T08:58:34.971Z,2.67
2023-01-17T09:01:06.503Z,2.88
2023-01-17T09:03:34.714Z,5.55
2023-01-17T09:06:12.295Z,2.92
2023-01-17T09:08:40.542Z,3.15
2023-01-17T09:11:13.788Z,5.50
2023-01-17T09:13:41.284Z,3.75
2023-01-17T09:16:09.473Z,6.57
2023-01-17T09:18:37.175Z,6.63
2023-01-17T09:21:17.585Z,4.03
2023-01-17T09:23:44.944Z,3.45
2023-01-17T09:26:21.823Z,3.17
2023-01-17T09:28:49.602Z,4.00
2023-01-17T09:31:17.952Z,4.93
2023-01-17T09:33:44.865Z,3.85
2023-01-17T09:36:12.354Z,2.35
2023-01-17T09:38:40.111Z,2.15
2023-01-17T09:41:32.372Z,3.95
2023-01-17T09:44:30.440Z,2.42
2023-01-17T09:47:32.293Z,5.15
2023-01-17T09:50:43.510Z,3.30
2023-01-17T09:53:18.890Z,3.97
2023-01-17T09:56:00.918Z,4.57
2023-01-17T09:58:51.125Z,4.68
2023-01-17T10:01:56.491Z,2.38
2023-01-17T10:04:43.019Z,3.58
2023-01-17T10:08:00.639Z,3.97
2023-01-17T10:10:43.653Z,2.70
2023-01-17T10:13:23.958Z,1.63
2023-01-17T10:16:28.771Z,3.75
2023-01-17T10:19:08.101Z,3.80
2023-01-17T10:22:12.211Z,8.93
2023-01-17T10:25:07.253Z,3.67
2023-01-17T10:27:58.982Z,2.17
2023-01-17T10:30:50.128Z,2.72
2023-01-17T10:33:20.899Z,4.57
2023-01-17T10:35:57.740Z,5.85
2023-01-17T10:38:35.064Z,4.20
2023-01-17T10:41:31.561Z,1.95
2023-01-17T10:44:25.221Z,4.95
2023-01-17T10:47:02.294Z,2.70
2023-01-17T10:49:29.364Z,2.78
2023-01-17T10:52:25.852Z,2.55
2023-01-17T10:55:16.940Z,5.18
2023-01-17T10:57:46.534Z,4.47
2023-01-17T11:00:40.040Z,3.03
2023-01-17T11:05:34.187Z,2.45
2023-01-17T11:08:13.541Z,2.20
2023-01-17T11:10:56.414Z,5.30
2023-01-17T11:13:32.189Z,6.10
2023-01-17T11:16:03.550Z,3.15
2023-01-17T11:18:34.401Z,9.18
2023-01-17T11:21:23.230Z,5.15
2023-01-17T11:23:58.426Z,3.60
2023-01-17T11:26:31.757Z,2.40
2023-01-17T11:29:28.320Z,4.68
2023-01-17T11:31:58.438Z,5.63
2023-01-17T11:34:31.997Z,2.83
2023-01-17T11:37:29.231Z,3.67
2023-01-17T11:40:16.929Z,2.95
2023-01-17T11:42:43.741Z,1.65
2023-01-17T11:45:29.941Z,4.13
2023-01-17T11:48:08.925Z,2.65
2023-01-17T11:50:42.472Z,2.60
2023-01-17T11:53:32.821Z,2.35
2023-01-17T11:56:26.005Z,3.67
2023-01-17T11:59:17.524Z,3.17
2023-01-17T12:02:21.032Z,3.70
2023-01-17T12:05:05.407Z,2.35
2023-01-17T12:07:55.367Z,4.22
2023-01-17T12:10:49.753Z,9.23
2023-01-17T12:13:50.136Z,3.08
2023-01-17T12:16:41.941Z,3.05
2023-01-17T12:19:45.536Z,3.85
2023-01-17T12:23:13.732Z,2.05
2023-01-17T12:25:46.364Z,2.25
2023-01-17T12:28:39.540Z,1.92
2023-01-17T12:31:26.990Z,2.13
2023-01-17T12:34:28.674Z,2.10
2023-01-17T12:37:03.124Z,2.15
2023-01-17T12:39:46.697Z,2.33
2023-01-17T12:42:24.108Z,0.90
2023-01-17T12:45:20.146Z,1.98
2023-01-17T12:47:54.490Z,2.58
2023-01-17T12:50:37.176Z,6.35
2023-01-17T12:53:12.541Z,3.33
2023-01-17T12:55:54.402Z,1.98
2023-01-17T12:58:25.884Z,1.30
2023-01-17T13:01:28.206Z,3.28
2023-01-17T13:04:38.461Z,1.30
2023-01-17T13:07:27.657Z,3.83
2023-01-17T13:10:14.997Z,12.13
2023-01-17T13:12:42.195Z,8.85
2023-01-17T13:15:21.313Z,7.68
2023-01-17T13:18:09.639Z,5.80
2023-01-17T13:21:04.653Z,7.30
2023-01-17T13:24:16.045Z,4.68
2023-01-17T13:27:07.175Z,6.53
2023-01-17T13:29:52.397Z,3.80
2023-01-17T13:33:01.666Z,4.18
2023-01-17T13:35:50.915Z,2.92
2023-01-17T13:39:03.649Z,4.47
2023-01-17T13:41:46.395Z,3.13
2023-01-17T13:44:27.195Z,3.03
2023-01-17T13:46:57.994Z,4.47
2023-01-17T13:49:31.554Z,2.97
2023-01-17T13:52:10.876Z,5.68
2023-01-17T13:54:55.952Z,3.17
2023-01-17T13:57:34.629Z,2.53
2023-01-17T14:00:16.204Z,6.53
2023-01-17T14:02:43.626Z,2.63
2023-01-17T14:05:22.083Z,4.28
2023-01-17T14:07:59.133Z,9.95
2023-01-17T14:10:37.732Z,11.75
2023-01-17T14:13:24.789Z,6.18
2023-01-17T14:15:52.089Z,5.95
2023-01-17T14:18:39.067Z,4.55
2023-01-17T14:21:22.035Z,4.60
2023-01-17T14:24:04.415Z,5.25
2023-01-17T14:27:21.755Z,6.80
2023-01-17T14:29:53.760Z,9.50
2023-01-17T14:32:25.836Z,4.25
2023-01-17T14:34:53.740Z,9.07
2023-01-17T14:37:32.857Z,4.80
2023-01-17T14:40:00.871Z,4.72
2023-01-17T14:42:30.663Z,4.63
2023-01-17T14:45:08.512Z,5.20
2023-01-17T14:47:39.988Z,6.18
2023-01-17T14:50:29.342Z,7.25
2023-01-17T14:53:11.458Z,5.22
2023-01-17T14:55:48.971Z,3.17
2023-01-17T14:58:31.242Z,5.50
2023-01-17T15:01:09.235Z,6.38
2023-01-17T15:03:45.288Z,4.72
2023-01-17T15:06:40.366Z,27.88
2023-01-17T15:09:11.278Z,41.70
2023-01-17T15:11:38.787Z,16.13
2023-01-17T15:14:06.867Z,8.48
2023-01-17T15:16:38.034Z,8.07
2023-01-17T15:19:14.489Z,5.13
2023-01-17T15:21:43.649Z,6.63
2023-01-17T15:24:20.461Z,6.32
2023-01-17T15:26:49.082Z,8.25
2023-01-17T15:29:34.452Z,5.25
2023-01-17T15:32:07.137Z,5.47
2023-01-17T15:34:46.365Z,12.10
2023-01-17T15:37:33.091Z,5.55
2023-01-17T15:40:22.404Z,13.05
2023-01-17T15:42:59.351Z,14.95
2023-01-17T15:45:32.279Z,12.60
2023-01-17T15:48:40.355Z,18.75
2023-01-17T15:51:09.771Z,13.80
2023-01-17T15:53:40.790Z,16.17
2023-01-17T15:56:31.706Z,17.65
2023-01-17T15:59:27.706Z,17.60
2023-01-17T16:01:58.283Z,20.00
2023-01-17T16:04:37.228Z,20.92
2023-01-17T16:07:35.361Z,19.25
2023-01-17T16:10:09.051Z,16.00
2023-01-17T16:12:35.891Z,12.10
2023-01-17T16:15:12.454Z,18.48
2023-01-17T16:17:45.491Z,34.83
2023-01-17T16:20:22.060Z,34.03
2023-01-17T16:22:49.909Z,15.35
2023-01-17T16:25:23.380Z,20.42
2023-01-17T16:30:21.594Z,17.65
2023-01-17T16:32:49.286Z,33.05
2023-01-17T16:35:21.359Z,92.10
2023-01-17T16:37:54.384Z,24.27
2023-01-17T16:40:25.457Z,21.88
2023-01-17T16:42:52.458Z,23.77
2023-01-17T16:45:19.285Z,17.83
2023-01-17T16:47:47.989Z,15.57
2023-01-17T16:50:23.321Z,14.35
2023-01-17T16:52:52.920Z,16.35
2023-01-17T16:55:23.148Z,21.15
2023-01-17T16:57:52.203Z,15.30
2023-01-17T17:00:19.644Z,11.65
2023-01-17T17:02:51.221Z,12.05
2023-01-17T17:05:18.499Z,11.60
2023-01-17T17:07:50.732Z,17.58
2023-01-17T17:10:20.321Z,14.40
2023-01-17T17:12:47.729Z,13.52
2023-01-17T17:15:14.846Z,18.52
2023-01-17T17:17:43.184Z,18.23
2023-01-17T17:20:13.423Z,16.10
2023-01-17T17:22:43.030Z,24.92
2023-01-17T17:25:11.880Z,23.42
2023-01-17T17:27:38.945Z,16.98
2023-01-17T17:30:06.907Z,14.95
2023-01-17T17:32:33.769Z,19.15
2023-01-17T17:35:00.933Z,13.65
2023-01-17T17:37:29.102Z,18.17
2023-01-17T17:39:59.001Z,18.55
2023-01-17T17:42:26.275Z,18.33
2023-01-17T17:44:53.528Z,16.70
2023-01-17T17:47:20.414Z,15.77
2023-01-17T17:49:47.371Z,16.02
2023-01-17T17:52:14.207Z,15.70
2023-01-17T17:54:41.215Z,14.55
2023-01-17T17:57:07.962Z,15.43
2023-01-17T17:59:34.747Z,12.02
2023-01-17T18:02:01.577Z,15.45
2023-01-17T18:04:28.476Z,12.25
2023-01-17T18:06:57.491Z,12.27
2023-01-17T18:09:24.600Z,14.60
2023-01-17T18:11:51.586Z,19.30
2023-01-17T18:14:20.887Z,15.55
2023-01-17T18:16:48.062Z,18.42
2023-01-17T18:19:21.890Z,19.83
2023-01-17T18:21:50.315Z,20.15
2023-01-17T18:24:20.788Z,36.05
2023-01-17T18:26:53.767Z,22.08
2023-01-17T18:31:50.090Z,23.00
2023-01-17T18:34:26.915Z,18.88
2023-01-17T18:36:53.793Z,14.75
2023-01-17T18:39:25.227Z,14.90
2023-01-17T18:41:52.759Z,11.63
2023-01-17T18:44:22.171Z,16.45
2023-01-17T18:46:53.892Z,17.65
2023-01-17T18:49:20.944Z,18.15
2023-01-17T18:51:50.953Z,19.77
2023-01-17T18:54:19.330Z,27.08
2023-01-17T18:56:46.373Z,19.85
2023-01-17T18:59:14.647Z,20.83
2023-01-17T19:01:44.845Z,16.55
2023-01-17T19:04:14.677Z,15.98
2023-01-17T19:06:44.333Z,15.77
2023-01-17T19:09:13.707Z,14.35
2023-01-17T19:11:42.936Z,14.98
2023-01-17T19:14:10.998Z,14.48
2023-01-17T19:16:40.668Z,16.90
2023-01-17T19:19:11.748Z,15.98
2023-01-17T19:21:38.900Z,15.35
2023-01-17T19:24:06.663Z,17.25
2023-01-17T19:26:34.086Z,13.55
2023-01-17T19:29:03.569Z,13.77
2023-01-17T19:31:34.453Z,14.50
2023-01-17T19:34:01.316Z,15.50
2023-01-17T19:36:37.386Z,16.00
2023-01-17T19:39:07.220Z,16.35
2023-01-17T19:41:37.549Z,71.97
2023-01-17T19:44:07.346Z,84.00
2023-01-17T19:46:35.510Z,51.65
2023-01-17T19:49:03.966Z,63.40
2023-01-17T19:51:30.813Z,31.83
2023-01-17T19:54:01.052Z,21.88
2023-01-17T19:56:28.556Z,18.95
2023-01-17T19:58:57.123Z,17.08
2023-01-17T20:01:28.599Z,17.15
2023-01-17T20:03:58.021Z,17.65
2023-01-17T20:06:29.204Z,16.58
2023-01-17T20:08:56.730Z,17.80
2023-01-17T20:11:25.743Z,21.08
2023-01-17T20:13:56.728Z,26.95
2023-01-17T20:16:26.074Z,22.00
2023-01-17T20:18:53.033Z,31.05
2023-01-17T20:21:23.841Z,33.83
2023-01-17T20:23:52.917Z,44.35
2023-01-17T20:26:34.417Z,39.85
2023-01-17T20:29:12.831Z,26.92
2023-01-17T20:31:42.117Z,30.10
2023-01-17T20:34:12.625Z,58.05
2023-01-17T20:36:41.736Z,25.10
2023-01-17T20:39:10.986Z,22.10
2023-01-17T20:41:40.414Z,16.02
2023-01-17T20:44:11.351Z,21.35
2023-01-17T20:46:49.711Z,19.08
2023-01-17T20:49:19.258Z,16.60
2023-01-17T20:51:46.760Z,16.73
2023-01-17T20:54:17.648Z,22.83
2023-01-17T20:56:47.138Z,32.78
2023-01-17T20:59:17.901Z,22.88
2023-01-17T21:01:45.191Z,17.95
2023-01-17T21:04:12.992Z,18.85
2023-01-17T21:06:41.542Z,12.55
2023-01-17T21:09:14.140Z,17.75
2023-01-17T21:11:41.080Z,27.70
2023-01-17T21:14:08.064Z,33.45
2023-01-17T21:16:35.780Z,39.25
2023-01-17T21:19:03.215Z,41.63
2023-01-17T21:21:30.487Z,35.10
2023-01-17T21:23:59.370Z,25.45
2023-01-17T21:26:28.270Z,16.25
2023-01-17T21:28:56.140Z,16.17
2023-01-17T21:31:33.412Z,21.15
2023-01-17T21:34:03.664Z,17.02
2023-01-17T21:36:34.351Z,16.02
2023-01-17T21:39:04.648Z,14.82
2023-01-17T21:41:35.669Z,17.42
2023-01-17T21:44:07.962Z,44.53
2023-01-17T21:46:38.621Z,14.57
2023-01-17T21:49:06.567Z,29.25
2023-01-17T21:51:54.704Z,29.67
2023-01-17T21:54:45.140Z,16.40
2023-01-17T21:57:33.033Z,17.17
2023-01-17T21:59:59.966Z,17.42
2023-01-17T22:02:26.793Z,15.73
2023-01-17T22:04:56.900Z,15.27
2023-01-17T22:07:26.848Z,17.73
2023-01-17T22:09:54.617Z,21.13
2023-01-17T22:12:21.438Z,14.02
2023-01-17T22:14:48.200Z,14.00
2023-01-17T22:17:15.022Z,15.00
2023-01-17T22:19:41.800Z,16.85
2023-01-17T22:22:08.621Z,16.77
2023-01-17T22:24:35.464Z,16.38
2023-01-17T22:27:02.271Z,15.70
2023-01-17T22:29:29.616Z,14.07
2023-01-17T22:31:56.460Z,15.23
2023-01-17T22:34:23.306Z,14.88
2023-01-17T22:36:50.500Z,15.85
2023-01-17T22:39:17.303Z,15.23
2023-01-17T22:41:44.078Z,14.02
2023-01-17T22:44:11.216Z,12.50
2023-01-17T22:46:39.182Z,15.02
2023-01-17T22:49:08.326Z,16.50
2023-01-17T22:51:35.599Z,16.08
2023-01-17T22:54:02.768Z,13.20
2023-01-17T22:56:33.156Z,15.75
2023-01-17T22:59:01.430Z,17.00
2023-01-17T23:01:32.888Z,18.58
2023-01-17T23:04:03.265Z,16.13
2023-01-17T23:06:37.675Z,15.82
2023-01-17T23:09:11.758Z,19.73
2023-01-17T23:11:49.820Z,18.70
2023-01-17T23:15:04.928Z,16.52
2023-01-17T23:17:50.219Z,19.80
2023-01-17T23:20:17.108Z,15.95
2023-01-17T23:22:43.895Z,16.63
2023-01-17T23:25:13.794Z,15.48
2023-01-17T23:28:07.938Z,16.48
2023-01-17T23:30:41.353Z,14.32
2023-01-17T23:33:14.636Z,14.93
2023-01-17T23:35:44.064Z,15.60
2023-01-17T23:38:31.141Z,15.85
2023-01-17T23:41:20.418Z,15.45
2023-01-17T23:43:52.283Z,14.73
2023-01-17T23:46:19.489Z,16.05
2023-01-17T23:48:47.237Z,16.15
2023-01-17T23:51:14.330Z,16.05
2023-01-17T23:53:41.445Z,14.48
2023-01-17T23:56:18.265Z,15.57
2023-01-17T23:58:45.273Z,14.45
